Time;durP1;ratioP1;P1;durP2;ratioP2;P2;SDS_P1;SDS_P2;PMS_P1;PMS_P2;Temp;Humidity;BMP_temperature;BMP_pressure;BME280_temperature;BME280_humidity;BME280_pressure;Samples;Min_cycle;Max_cycle;Signal;HPM_P1;HPM_P2
2021/01/13 00:00:40;;;;;;;18.27;7.15;;;;;;;1.50;87.13;100440.72;4919498;29;20050;-87
2021/01/13 00:03:10;;;;;;;15.57;6.80;;;;;;;1.57;87.60;100448.50;4905199;29;20545;-87
2021/01/13 00:05:40;;;;;;;15.70;6.43;;;;;;;1.51;87.49;100438.09;4923043;29;20060;-85
2021/01/13 00:08:08;;;;;;;17.30;6.50;;;;;;;1.53;87.69;100444.19;4906574;29;20063;-85
2021/01/13 00:10:36;;;;;;;15.20;6.28;;;;;;;1.50;87.27;100441.59;4923466;29;20028;-87
2021/01/13 00:13:03;;;;;;;11.77;6.07;;;;;;;1.55;87.02;100446.78;4931087;29;20056;-86
2021/01/13 00:15:32;;;;;;;15.05;5.88;;;;;;;1.60;86.56;100458.03;4929364;29;20048;-86
2021/01/13 00:17:59;;;;;;;14.00;6.03;;;;;;;1.62;86.12;100458.88;4910650;29;20056;-87
2021/01/13 00:20:27;;;;;;;12.48;5.22;;;;;;;1.65;85.45;100456.25;4921767;29;20052;-85
2021/01/13 00:22:55;;;;;;;13.20;5.53;;;;;;;1.64;85.84;100457.97;4922358;29;20056;-87
2021/01/13 00:25:22;;;;;;;9.18;4.88;;;;;;;1.64;85.78;100460.59;4917545;29;20044;-86
2021/01/13 00:27:49;;;;;;;19.02;5.25;;;;;;;1.66;85.64;100466.66;4913479;29;20056;-85
2021/01/13 00:30:18;;;;;;;19.20;5.93;;;;;;;1.62;85.37;100472.78;4920966;29;20951;-85
2021/01/13 00:32:45;;;;;;;12.68;5.38;;;;;;;1.59;86.09;100471.94;4905345;29;20056;-85
2021/01/13 00:35:14;;;;;;;13.88;5.43;;;;;;;1.56;86.14;100469.38;4927459;29;20036;-85
2021/01/13 00:37:43;;;;;;;13.75;5.10;;;;;;;1.52;86.11;100465.94;4936961;29;20052;-85
2021/01/13 00:40:12;;;;;;;15.77;5.60;;;;;;;1.51;86.29;100471.16;4932888;29;20115;-85
2021/01/13 00:42:49;;;;;;;15.57;5.50;;;;;;;1.49;86.45;100463.34;4933779;29;20141;-86
2021/01/13 00:45:20;;;;;;;15.23;6.32;;;;;;;1.47;86.11;100451.19;4916428;29;20043;-86
2021/01/13 00:47:52;;;;;;;19.90;6.03;;;;;;;1.47;86.06;100459.00;4934684;29;20047;-86
2021/01/13 00:50:22;;;;;;;14.63;5.50;;;;;;;1.43;86.44;100455.56;4937330;29;20043;-85
2021/01/13 00:52:52;;;;;;;18.10;5.80;;;;;;;1.41;86.08;100467.78;4940401;29;20048;-85
2021/01/13 00:55:19;;;;;;;13.07;5.65;;;;;;;1.39;86.60;100470.41;4940165;29;20051;-86
2021/01/13 00:57:50;;;;;;;11.50;5.22;;;;;;;1.36;86.34;100477.38;4940253;28;20070;-86
2021/01/13 01:00:18;;;;;;;15.60;5.90;;;;;;;1.25;86.32;100448.78;4938279;29;20116;-85
2021/01/13 01:02:48;;;;;;;14.05;5.65;;;;;;;1.34;86.10;100468.69;4921737;29;20050;-87
2021/01/13 01:05:15;;;;;;;11.25;5.20;;;;;;;1.32;86.66;100460.88;4917749;28;20032;-85
2021/01/13 01:07:44;;;;;;;14.40;5.60;;;;;;;1.34;86.32;100469.56;4923780;29;20032;-86
2021/01/13 01:10:19;;;;;;;13.25;5.10;;;;;;;1.36;86.23;100470.44;4941039;28;20036;-85
2021/01/13 01:12:46;;;;;;;12.50;4.90;;;;;;;1.27;85.74;100454.81;4933523;28;20031;-87
2021/01/13 01:15:23;;;;;;;14.55;4.63;;;;;;;1.33;85.96;100469.56;4922431;29;20028;-85
2021/01/13 01:17:50;;;;;;;15.63;6.18;;;;;;;1.32;85.93;100476.53;4940383;28;20036;-87
2021/01/13 01:20:19;;;;;;;14.30;5.28;;;;;;;1.29;85.79;100476.56;4940079;29;20116;-86
2021/01/13 01:22:58;;;;;;;13.65;5.72;;;;;;;1.24;85.97;100472.28;4921692;29;20036;-85
2021/01/13 01:25:49;;;;;;;10.82;5.10;;;;;;;1.25;85.73;100480.09;4937627;29;20116;-85
2021/01/13 01:28:25;;;;;;;15.50;5.30;;;;;;;1.25;86.13;100476.63;4914531;29;20147;-84
2021/01/13 01:30:51;;;;;;;14.95;5.38;;;;;;;1.22;85.63;100474.03;4911649;29;20426;-85
2021/01/13 01:33:21;;;;;;;13.73;4.97;;;;;;;1.21;85.55;100477.50;4922498;29;20226;-86
2021/01/13 01:36:03;;;;;;;11.48;5.05;;;;;;;1.17;85.55;100486.22;4927052;29;20171;-86
2021/01/13 01:38:32;;;;;;;14.23;4.93;;;;;;;1.21;85.55;100487.94;4932300;29;20059;-84
2021/01/13 01:41:09;;;;;;;11.73;5.03;;;;;;;1.20;85.95;100491.44;4935258;29;20052;-85
2021/01/13 01:43:36;;;;;;;11.52;4.63;;;;;;;1.19;86.02;100497.50;4916938;29;20143;-86
2021/01/13 01:46:04;;;;;;;12.07;5.57;;;;;;;1.11;86.09;100496.69;4934882;29;20070;-85
2021/01/13 01:48:33;;;;;;;14.18;5.65;;;;;;;1.09;86.70;100507.16;4923267;29;20679;-85
2021/01/13 01:51:01;;;;;;;13.30;5.25;;;;;;;1.07;86.84;100508.03;4923595;29;20055;-86
2021/01/13 01:53:36;;;;;;;11.77;5.53;;;;;;;1.09;86.39;100516.72;4920791;29;20063;-87
2021/01/13 01:56:51;;;;;;;15.73;5.72;;;;;;;1.03;86.63;100509.78;4932187;29;20063;-87
2021/01/13 01:59:32;;;;;;;17.50;5.57;;;;;;;0.95;87.50;100507.22;4919597;29;20036;-86
2021/01/13 02:02:18;;;;;;;13.27;5.38;;;;;;;0.91;87.42;100507.28;4926953;29;20044;-86
2021/01/13 02:05:02;;;;;;;14.93;5.15;;;;;;;0.93;88.09;100511.59;4918097;29;20052;-86
2021/01/13 02:07:31;;;;;;;13.90;4.50;;;;;;;0.91;87.74;100512.47;4935773;29;20084;-85
2021/01/13 02:09:59;;;;;;;14.50;4.95;;;;;;;0.86;87.63;100498.59;4932824;29;20048;-85
2021/01/13 02:12:30;;;;;;;10.40;4.97;;;;;;;0.80;88.29;100499.50;4906676;29;20053;-85
2021/01/13 02:14:59;;;;;;;17.60;5.38;;;;;;;0.79;88.57;100504.75;4928023;29;20048;-85
2021/01/13 02:17:30;;;;;;;17.85;5.80;;;;;;;0.80;88.51;100501.22;4932370;29;20139;-86
2021/01/13 02:20:11;;;;;;;11.70;4.88;;;;;;;0.82;88.11;100504.69;4927394;29;20048;-84
2021/01/13 02:22:58;;;;;;;11.25;5.25;;;;;;;0.87;87.94;100506.41;4935706;29;20032;-85
2021/01/13 02:26:00;;;;;;;13.55;5.13;;;;;;;0.87;87.85;100510.75;4904952;29;20058;-85
2021/01/13 02:28:28;;;;;;;13.60;5.35;;;;;;;0.84;88.02;100510.78;4917546;29;20056;-85
2021/01/13 02:30:57;;;;;;;12.68;5.22;;;;;;;0.85;88.09;100518.59;4918190;29;20527;-85
2021/01/13 02:33:31;;;;;;;11.90;4.95;;;;;;;0.85;88.18;100509.91;4922030;29;20056;-85
2021/01/13 02:36:01;;;;;;;16.77;5.25;;;;;;;0.79;88.18;100504.75;4909485;29;20052;-85
2021/01/13 02:38:32;;;;;;;9.60;5.30;;;;;;;0.73;88.67;100509.97;4904165;29;20045;-85
2021/01/13 02:40:59;;;;;;;16.00;5.38;;;;;;;0.67;88.79;100511.72;4928000;29;20063;-85
2021/01/13 02:43:30;;;;;;;12.52;6.00;;;;;;;0.66;89.28;100510.00;4929619;29;20055;-86
2021/01/13 02:45:59;;;;;;;14.75;5.88;;;;;;;0.70;89.33;100522.16;4923968;29;20079;-86
2021/01/13 02:48:33;;;;;;;17.63;5.38;;;;;;;0.69;89.06;100530.84;4924043;29;23760;-86
2021/01/13 02:51:02;;;;;;;14.20;6.20;;;;;;;0.64;89.66;100529.13;4920233;29;20055;-86
2021/01/13 02:53:29;;;;;;;19.83;6.00;;;;;;;0.62;89.57;100529.16;4921674;29;20064;-86
2021/01/13 02:55:55;;;;;;;12.25;5.50;;;;;;;0.59;89.91;100520.47;4918087;29;20044;-85
2021/01/13 02:58:30;;;;;;;11.50;4.70;;;;;;;0.62;90.12;100528.28;4919111;29;20044;-84
2021/01/13 03:01:01;;;;;;;14.60;5.85;;;;;;;0.60;89.95;100519.59;4912911;29;20051;-85
2021/01/13 03:03:32;;;;;;;11.18;5.57;;;;;;;0.53;89.34;100516.13;4914505;29;20138;-84
2021/01/13 03:06:10;;;;;;;16.02;5.80;;;;;;;0.53;89.71;100526.56;4919816;29;20055;-85
2021/01/13 03:09:01;;;;;;;12.55;5.78;;;;;;;0.55;89.88;100522.22;4931159;29;20099;-84
2021/01/13 03:11:28;;;;;;;16.52;6.03;;;;;;;0.50;89.45;100523.97;4937718;29;20044;-84
2021/01/13 03:14:08;;;;;;;17.92;5.60;;;;;;;0.48;89.89;100530.91;4938155;29;20060;-84
2021/01/13 03:16:42;;;;;;;14.00;4.97;;;;;;;0.50;90.22;100539.59;4924256;29;20561;-85
2021/01/13 03:19:19;;;;;;;12.20;6.05;;;;;;;0.58;90.05;100534.38;4931659;29;20052;-84
2021/01/13 03:22:01;;;;;;;15.70;4.97;;;;;;;0.66;89.83;100540.41;4920328;29;20051;-84
2021/01/13 03:24:54;;;;;;;10.70;4.80;;;;;;;0.61;89.35;100539.56;4935599;29;20119;-84
2021/01/13 03:27:24;;;;;;;14.57;5.53;;;;;;;0.57;89.72;100540.44;4903962;29;20056;-85
2021/01/13 03:29:58;;;;;;;11.93;4.75;;;;;;;0.54;89.93;100536.13;4909136;29;20057;-85
2021/01/13 03:32:32;;;;;;;12.48;4.95;;;;;;;0.56;90.47;100531.78;4916602;29;20052;-85
2021/01/13 03:35:09;;;;;;;13.15;4.90;;;;;;;0.60;89.91;100524.81;4926571;29;20111;-84
2021/01/13 03:38:10;;;;;;;14.23;5.60;;;;;;;0.57;90.28;100533.50;4916261;29;20071;-85
2021/01/13 03:40:38;;;;;;;12.63;4.95;;;;;;;0.54;89.88;100536.13;4927757;29;20052;-85
2021/01/13 03:43:18;;;;;;;15.63;5.50;;;;;;;0.50;90.57;100538.72;4921324;29;20401;-84
2021/01/13 03:45:54;;;;;;;12.45;5.28;;;;;;;0.49;90.16;100544.81;4903636;29;20095;-84
2021/01/13 03:48:51;;;;;;;15.30;5.03;;;;;;;0.50;90.75;100549.16;4909188;29;20072;-85
2021/01/13 03:51:59;;;;;;;11.30;4.82;;;;;;;0.45;90.66;100540.50;4915610;29;20056;-84
2021/01/13 03:54:31;;;;;;;10.80;4.90;;;;;;;0.38;90.88;100539.66;4913622;29;20079;-83
2021/01/13 03:57:04;;;;;;;13.55;4.90;;;;;;;0.32;91.56;100544.88;4913866;29;20059;-84
2021/01/13 03:59:41;;;;;;;12.60;4.93;;;;;;;0.30;91.71;100546.63;4899353;29;20063;-84
2021/01/13 04:02:09;;;;;;;18.15;5.80;;;;;;;0.30;91.50;100549.25;4929850;29;20036;-84
2021/01/13 04:04:42;;;;;;;10.82;4.22;;;;;;;0.33;92.17;100546.59;4933531;29;20055;-84
2021/01/13 04:07:11;;;;;;;13.73;4.43;;;;;;;0.34;91.64;100557.03;4916628;29;20059;-85
2021/01/13 04:09:39;;;;;;;11.50;5.40;;;;;;;0.33;91.89;100568.31;4919078;29;20064;-85
2021/01/13 04:12:14;;;;;;;15.13;5.40;;;;;;;0.34;91.92;100559.63;4904519;29;20044;-85
2021/01/13 04:14:57;;;;;;;18.05;4.97;;;;;;;0.32;92.31;100561.34;4937553;29;20063;-85
2021/01/13 04:17:26;;;;;;;13.32;4.47;;;;;;;0.31;92.04;100566.59;4937381;28;20052;-85
2021/01/13 04:19:55;;;;;;;11.57;4.72;;;;;;;0.32;92.09;100560.50;4935407;28;20111;-86
2021/01/13 04:22:25;;;;;;;13.05;4.80;;;;;;;0.33;91.97;100557.03;4932924;28;20048;-86
2021/01/13 04:24:55;;;;;;;13.25;5.35;;;;;;;0.27;91.85;100555.31;4932585;28;20031;-86
2021/01/13 04:27:22;;;;;;;13.63;4.63;;;;;;;0.30;91.95;100557.06;4935503;29;20080;-86
2021/01/13 04:29:50;;;;;;;13.90;4.78;;;;;;;0.30;92.07;100557.06;4930321;29;20128;-85
2021/01/13 04:32:19;;;;;;;13.18;4.70;;;;;;;0.29;92.01;100550.97;4920326;29;20130;-86
2021/01/13 04:34:46;;;;;;;11.52;4.43;;;;;;;0.25;91.95;100543.16;4903278;29;20051;-86
2021/01/13 04:37:17;;;;;;;11.75;4.60;;;;;;;0.26;92.27;100544.91;4919775;29;20054;-87
2021/01/13 04:39:45;;;;;;;11.55;5.03;;;;;;;0.23;92.19;100552.72;4917620;29;20506;-86
2021/01/13 04:42:12;;;;;;;11.80;4.07;;;;;;;0.21;92.29;100549.25;4904039;29;20059;-86
2021/01/13 04:45:00;;;;;;;13.07;4.32;;;;;;;0.26;92.21;100561.41;4924129;29;20059;-86
2021/01/13 04:47:57;;;;;;;13.25;4.15;;;;;;;0.22;91.75;100564.00;4920027;29;20052;-87
2021/01/13 04:50:28;;;;;;;14.30;4.05;;;;;;;0.18;91.84;100568.34;4914762;29;20146;-86
2021/01/13 04:52:59;;;;;;;13.77;4.78;;;;;;;0.16;91.82;100571.84;4917600;29;20060;-86
2021/01/13 04:55:31;;;;;;;15.50;4.60;;;;;;;0.12;92.03;100563.16;4904494;29;20052;-86
2021/01/13 04:58:21;;;;;;;10.48;4.43;;;;;;;0.14;91.68;100571.84;4902188;29;20052;-86
2021/01/13 05:01:00;;;;;;;12.25;4.43;;;;;;;0.09;91.63;100564.91;4931310;29;20052;-86
2021/01/13 05:04:00;;;;;;;11.07;3.72;;;;;;;0.03;91.96;100555.34;4928397;29;20052;-86
2021/01/13 05:07:10;;;;;;;14.05;4.25;;;;;;;0.05;91.81;100563.16;4938056;29;20032;-86
2021/01/13 05:10:03;;;;;;;16.38;4.40;;;;;;;0.05;91.50;100552.75;4917157;29;20047;-85
2021/01/13 05:12:47;;;;;;;11.95;3.75;;;;;;;0.04;91.84;100564.91;4922249;29;20161;-86
2021/01/13 05:15:16;;;;;;;11.57;3.45;;;;;;;0.06;91.76;100559.69;4917207;29;20049;-85
2021/01/13 05:17:59;;;;;;;11.07;3.75;;;;;;;0.07;91.48;100557.09;4922775;29;20052;-85
2021/01/13 05:20:32;;;;;;;10.65;3.35;;;;;;;0.07;91.10;100559.69;4923671;29;20080;-85
2021/01/13 05:23:01;;;;;;;11.60;3.72;;;;;;;0.04;91.03;100562.31;4939831;29;20145;-85
2021/01/13 05:25:40;;;;;;;12.77;3.67;;;;;;;0.02;90.96;100571.84;4937883;29;20056;-86
2021/01/13 05:28:11;;;;;;;17.90;4.32;;;;;;;0.02;91.03;100566.63;4930387;29;20063;-85
2021/01/13 05:31:03;;;;;;;8.77;2.83;;;;;;;-0.02;90.88;100559.72;4926114;29;20090;-88
2021/01/13 05:33:32;;;;;;;9.13;3.42;;;;;;;-0.04;91.27;100561.47;4945443;28;20044;-85
2021/01/13 05:36:04;;;;;;;11.13;4.03;;;;;;;-0.01;91.17;100556.25;4917415;29;20482;-85
2021/01/13 05:39:02;;;;;;;10.52;3.60;;;;;;;0.03;91.29;100560.56;4914044;29;20135;-85
2021/01/13 05:41:31;;;;;;;14.65;3.25;;;;;;;0.02;91.72;100551.03;4925323;29;20111;-87
2021/01/13 05:43:58;;;;;;;11.23;3.75;;;;;;;-0.01;91.24;100556.25;4917244;29;20063;-86
2021/01/13 05:46:46;;;;;;;12.02;3.20;;;;;;;0.01;91.65;100559.69;4925376;29;20052;-87
2021/01/13 05:49:15;;;;;;;11.88;3.40;;;;;;;0.01;91.66;100549.28;4937101;29;20055;-86
2021/01/13 05:51:43;;;;;;;8.30;3.22;;;;;;;0.05;91.54;100555.34;4919851;29;20149;-86
2021/01/13 05:54:15;;;;;;;14.27;3.90;;;;;;;0.09;91.15;100554.50;4934394;28;20056;-86
2021/01/13 05:56:57;;;;;;;10.82;3.75;;;;;;;0.15;90.68;100544.06;4937081;29;20044;-86
2021/01/13 05:59:28;;;;;;;10.80;3.70;;;;;;;0.14;89.98;100547.53;4935659;29;20062;-86
2021/01/13 06:02:01;;;;;;;15.25;3.42;;;;;;;0.15;90.25;100542.34;4926809;29;20099;-86
2021/01/13 06:04:29;;;;;;;10.52;3.88;;;;;;;0.14;89.79;100544.94;4924496;29;20084;-86
2021/01/13 06:07:23;;;;;;;13.00;3.78;;;;;;;0.10;90.04;100551.03;4922857;29;20052;-86
2021/01/13 06:09:55;;;;;;;15.18;4.47;;;;;;;0.05;90.07;100543.22;4934396;29;20067;-85
2021/01/13 06:12:23;;;;;;;10.90;3.67;;;;;;;0.05;90.06;100545.81;4904659;29;20050;-85
2021/01/13 06:14:54;;;;;;;10.52;3.72;;;;;;;0.06;90.40;100551.88;4922187;29;20075;-85
2021/01/13 06:17:29;;;;;;;13.95;4.10;;;;;;;-0.01;89.84;100545.84;4919796;29;20139;-84
2021/01/13 06:19:56;;;;;;;12.38;3.35;;;;;;;-0.01;89.96;100554.53;4921113;29;20048;-85
2021/01/13 06:22:34;;;;;;;8.15;3.40;;;;;;;0.05;89.75;100564.03;4903641;29;20131;-85
2021/01/13 06:25:04;;;;;;;13.23;3.42;;;;;;;0.03;89.63;100559.69;4922791;29;20106;-84
2021/01/13 06:28:03;;;;;;;11.23;3.50;;;;;;;-0.03;89.58;100555.38;4916257;29;20059;-84
2021/01/13 06:30:40;;;;;;;10.57;3.90;;;;;;;-0.11;89.88;100554.50;4923400;29;20062;-85
2021/01/13 06:33:24;;;;;;;14.55;4.13;;;;;;;-0.13;90.45;100553.66;4912740;29;20055;-85
2021/01/13 06:36:13;;;;;;;14.27;4.18;;;;;;;-0.17;90.71;100550.19;4921426;29;20072;-85
2021/01/13 06:38:47;;;;;;;11.43;4.43;;;;;;;-0.19;90.70;100545.88;4932180;29;20175;-85
2021/01/13 06:41:17;;;;;;;11.82;4.25;;;;;;;-0.21;90.78;100558.00;4924239;29;20095;-84
2021/01/13 06:44:06;;;;;;;9.00;4.10;;;;;;;-0.22;90.90;100557.13;4913259;29;20879;-85
2021/01/13 06:46:35;;;;;;;13.18;4.53;;;;;;;-0.23;90.97;100555.41;4904054;29;20048;-85
2021/01/13 06:49:15;;;;;;;9.43;4.73;;;;;;;-0.22;90.86;100561.47;4917711;29;20052;-85
2021/01/13 06:51:47;;;;;;;10.10;4.15;;;;;;;-0.23;91.23;100562.34;4914676;29;20484;-85
2021/01/13 06:54:17;;;;;;;13.73;4.75;;;;;;;-0.22;91.33;100556.28;4928862;29;20060;-84
2021/01/13 06:56:54;;;;;;;;;;;;;;;-0.20;91.32;100562.34;4934823;28;20036;-84
2021/01/13 06:59:23;;;;;;;13.02;4.95;;;;;;;-0.25;90.99;100564.06;4914399;29;19963;-84
2021/01/13 07:01:58;;;;;;;9.73;4.55;;;;;;;-0.28;90.88;100567.53;4920373;29;20054;-83
2021/01/13 07:04:27;;;;;;;14.05;5.30;;;;;;;-0.28;91.26;100574.47;4919712;29;20490;-84
2021/01/13 07:07:07;;;;;;;12.65;5.15;;;;;;;-0.31;91.15;100577.06;4935698;29;20040;-83
2021/01/13 07:09:39;;;;;;;19.25;6.20;;;;;;;-0.27;91.16;100576.22;4928578;29;20066;-84
2021/01/13 07:12:15;;;;;;;12.70;5.10;;;;;;;-0.28;91.20;100577.06;4903340;29;20515;-87
2021/01/13 07:14:48;;;;;;;14.30;6.30;;;;;;;-0.31;91.39;100579.66;4898370;29;20052;-87
2021/01/13 07:17:24;;;;;;;14.35;6.00;;;;;;;-0.36;91.33;100579.69;4928776;29;21760;-84
2021/01/13 07:19:54;;;;;;;10.50;5.78;;;;;;;-0.37;91.28;100573.63;4929149;29;20125;-85
2021/01/13 07:22:26;;;;;;;16.13;5.43;;;;;;;-0.37;91.32;100580.56;4924994;29;20058;-84
2021/01/13 07:24:54;;;;;;;18.88;5.95;;;;;;;-0.35;91.20;100576.22;4919144;29;20157;-85
2021/01/13 07:27:22;;;;;;;14.75;5.75;;;;;;;-0.40;91.37;100558.00;4909118;29;20083;-86
2021/01/13 07:29:50;;;;;;;12.80;5.75;;;;;;;-0.36;91.08;100571.88;4897143;29;20078;-84
2021/01/13 07:32:30;;;;;;;15.98;6.25;;;;;;;-0.34;91.40;100571.91;4916769;29;20104;-85
2021/01/13 07:35:12;;;;;;;17.42;6.38;;;;;;;-0.37;91.15;100571.03;4902584;29;20075;-85
2021/01/13 07:37:53;;;;;;;19.50;6.72;;;;;;;-0.38;91.09;100565.81;4922145;29;20056;-85
2021/01/13 07:40:34;;;;;;;13.82;7.45;;;;;;;-0.37;91.28;100572.75;4905978;29;20140;-85
2021/01/13 07:43:08;;;;;;;15.32;6.55;;;;;;;-0.26;90.96;100575.34;4919676;29;20083;-86
2021/01/13 07:45:54;;;;;;;15.60;6.07;;;;;;;-0.16;91.17;100575.31;4917056;29;20044;-85
2021/01/13 07:49:01;;;;;;;19.73;9.50;;;;;;;-0.09;91.03;100568.41;4925634;29;20450;-86
2021/01/13 07:51:34;;;;;;;18.80;6.13;;;;;;;0.00;90.47;100579.66;4933505;29;20054;-85
2021/01/13 07:54:25;;;;;;;12.20;5.43;;;;;;;0.03;90.31;100577.91;4936879;29;20464;-84
2021/01/13 07:56:56;;;;;;;14.30;5.22;;;;;;;0.07;89.94;100577.06;4937341;29;20128;-84
2021/01/13 07:59:46;;;;;;;16.13;6.05;;;;;;;-0.01;89.95;100549.31;4927113;29;20067;-85
2021/01/13 08:02:35;;;;;;;15.52;5.78;;;;;;;0.14;90.04;100573.59;4935005;29;20062;-85
2021/01/13 08:05:36;;;;;;;12.48;5.25;;;;;;;0.15;89.91;100570.13;4931076;29;20048;-86
2021/01/13 08:08:07;;;;;;;20.70;6.28;;;;;;;0.15;89.97;100565.78;4930514;29;20639;-85
2021/01/13 08:10:47;;;;;;;12.20;5.38;;;;;;;0.17;90.35;100566.59;4933410;29;20032;-85
2021/01/13 08:13:31;;;;;;;16.33;6.03;;;;;;;0.20;90.36;100576.16;4934428;29;20048;-85
2021/01/13 08:16:12;;;;;;;13.32;5.13;;;;;;;0.24;90.11;100578.75;4926954;29;20056;-85
2021/01/13 08:19:17;;;;;;;11.93;5.80;;;;;;;0.25;90.02;100590.91;4926037;29;20056;-87
2021/01/13 08:22:01;;;;;;;14.25;5.70;;;;;;;0.23;89.92;100584.84;4926744;29;20075;-83
2021/01/13 08:24:43;;;;;;;14.55;5.65;;;;;;;0.25;90.33;100597.84;4911740;29;20073;-86
2021/01/13 08:27:14;;;;;;;22.88;6.03;;;;;;;0.26;90.03;100582.22;4926857;29;20056;-86
2021/01/13 08:29:53;;;;;;;15.40;6.20;;;;;;;0.31;89.86;100592.66;4909222;29;20055;-87
2021/01/13 08:32:31;;;;;;;14.90;6.00;;;;;;;0.33;89.95;100585.66;4926538;29;20133;-90
2021/01/13 08:35:10;;;;;;;14.52;5.85;;;;;;;0.45;89.34;100598.69;4916159;29;20078;-90
2021/01/13 08:37:38;;;;;;;16.58;6.45;;;;;;;0.56;88.91;100598.66;4932303;29;20052;-86
2021/01/13 08:40:27;;;;;;;11.60;5.50;;;;;;;0.64;88.40;100604.69;4923039;29;20054;-86
2021/01/13 08:43:06;;;;;;;13.88;6.10;;;;;;;0.75;88.06;100587.28;4924438;29;20052;-86
2021/01/13 08:45:40;;;;;;;15.73;5.97;;;;;;;0.76;87.76;100589.03;4931089;29;20055;-87
2021/01/13 08:48:10;;;;;;;20.17;6.70;;;;;;;0.78;87.32;100592.50;4922733;29;20070;-87
2021/01/13 08:50:37;;;;;;;13.73;6.30;;;;;;;0.77;88.00;100597.72;4974753;23;20047;-87
2021/01/13 08:53:07;;;;;;;15.02;6.93;;;;;;;0.96;91.49;100597.59;4957390;28;20571;-87
2021/01/13 08:55:34;;;;;;;12.15;6.15;;;;;;;1.32;92.72;100590.47;4920521;29;20088;-86
2021/01/13 08:58:09;;;;;;;12.93;6.57;;;;;;;1.67;90.05;100590.22;4940280;29;20110;-86
2021/01/13 09:00:37;;;;;;;13.95;6.28;;;;;;;1.86;88.20;100598.78;4945412;29;20564;-86
2021/01/13 09:03:06;;;;;;;12.48;5.30;;;;;;;1.92;84.72;100598.72;4947575;29;20043;-87
2021/01/13 09:05:40;;;;;;;13.73;5.70;;;;;;;1.93;84.08;100588.25;4934379;29;20107;-86
2021/01/13 09:08:11;;;;;;;17.33;6.05;;;;;;;2.00;84.00;100603.00;4922102;29;20146;-86
2021/01/13 09:10:54;;;;;;;13.38;5.25;;;;;;;1.97;83.58;100591.72;4959256;29;20083;-87
2021/01/13 09:13:38;;;;;;;17.48;6.03;;;;;;;2.15;83.12;100604.59;4944339;29;20702;-87
2021/01/13 09:16:27;;;;;;;14.98;5.82;;;;;;;2.25;82.86;100597.53;4944454;29;20485;-87
2021/01/13 09:18:56;;;;;;;13.50;5.93;;;;;;;2.29;82.21;100597.50;4939965;29;20047;-87
2021/01/13 09:21:38;;;;;;;12.30;6.03;;;;;;;2.36;81.75;100600.94;4938944;28;20063;-86
2021/01/13 09:24:10;;;;;;;14.80;6.35;;;;;;;2.44;81.73;100594.72;4932686;28;20036;-86
2021/01/13 09:26:41;;;;;;;15.57;6.22;;;;;;;2.43;81.36;100590.38;4961796;23;20051;-86
2021/01/13 09:29:10;;;;;;;14.32;5.78;;;;;;;2.46;81.70;100592.97;4920155;29;20051;-86
2021/01/13 09:31:39;;;;;;;14.13;6.55;;;;;;;2.42;81.67;100591.25;4946475;28;20090;-86
2021/01/13 09:34:09;;;;;;;14.27;6.40;;;;;;;2.39;82.20;100591.28;4941790;28;20039;-87
2021/01/13 09:36:59;;;;;;;15.98;6.88;;;;;;;2.45;81.71;100588.63;4944908;28;20109;-87
2021/01/13 09:39:37;;;;;;;15.00;7.03;;;;;;;2.62;81.53;100582.34;4921031;29;20119;-84
2021/01/13 09:42:34;;;;;;;12.15;6.28;;;;;;;2.80;80.66;100587.34;4912224;29;20048;-85
2021/01/13 09:45:17;;;;;;;12.45;6.38;;;;;;;2.80;80.41;100582.13;4926535;29;20161;-86
2021/01/13 09:48:15;;;;;;;14.40;8.15;;;;;;;2.83;80.29;100587.31;4915895;29;20065;-86
2021/01/13 09:50:44;;;;;;;13.68;6.82;;;;;;;2.82;80.51;100577.72;4931325;29;20052;-86
2021/01/13 09:53:15;;;;;;;19.40;8.00;;;;;;;2.92;81.08;100584.56;4937490;29;20062;-86
2021/01/13 09:56:09;;;;;;;18.38;7.20;;;;;;;3.04;80.16;100579.16;4919564;29;20083;-86
2021/01/13 09:58:43;;;;;;;11.20;6.47;;;;;;;3.13;79.67;100586.91;4931188;29;20356;-85
2021/01/13 10:01:29;;;;;;;17.20;6.93;;;;;;;3.28;79.87;100584.97;4932175;29;20072;-84
2021/01/13 10:04:14;;;;;;;13.88;6.72;;;;;;;3.36;79.22;100583.94;4911090;29;20063;-86
2021/01/13 10:06:53;;;;;;;14.82;6.28;;;;;;;3.58;77.92;100578.41;4930565;29;20040;-86
2021/01/13 10:09:29;;;;;;;12.20;6.68;;;;;;;3.58;77.31;100581.88;4918477;29;20083;-86
2021/01/13 10:12:11;;;;;;;14.02;6.15;;;;;;;3.56;77.59;100575.81;4930162;29;20044;-86
2021/01/13 10:14:53;;;;;;;11.18;5.65;;;;;;;3.50;77.28;100575.88;4936515;29;20055;-85
2021/01/13 10:17:35;;;;;;;11.93;5.20;;;;;;;3.49;77.04;100577.66;4901514;29;20052;-86
2021/01/13 10:20:24;;;;;;;12.75;5.53;;;;;;;3.51;77.19;100582.84;4920652;29;20200;-86
2021/01/13 10:23:01;;;;;;;12.17;5.37;;;;;;;3.54;76.82;100569.72;4932756;29;20080;-86
2021/01/13 10:25:35;;;;;;;16.08;5.63;;;;;;;3.46;76.62;100571.63;4924908;29;20079;-86
2021/01/13 10:28:03;;;;;;;11.15;5.68;;;;;;;3.40;77.50;100566.47;4929458;29;20079;-86
2021/01/13 10:30:33;;;;;;;11.80;5.60;;;;;;;3.35;77.68;100561.28;4926668;29;20131;-86
2021/01/13 10:33:17;;;;;;;13.18;5.07;;;;;;;3.38;78.01;100565.63;4922557;29;20149;-86
2021/01/13 10:35:52;;;;;;;11.85;5.05;;;;;;;3.46;77.41;100558.53;4933317;29;20104;-87
2021/01/13 10:38:26;;;;;;;13.27;5.55;;;;;;;3.49;77.46;100551.47;4920195;29;20060;-87
2021/01/13 10:41:03;;;;;;;12.23;5.38;;;;;;;3.46;78.17;100556.75;4925440;28;20044;-86
2021/01/13 10:44:37;;;;;;;9.25;4.90;;;;;;;3.44;77.38;100560.28;4931369;28;20035;-86
2021/01/13 10:47:35;;;;;;;10.93;4.68;;;;;;;3.49;77.65;100561.06;4937507;29;20056;-86
2021/01/13 10:50:20;;;;;;;8.60;5.15;;;;;;;3.53;78.15;100568.00;4943175;29;20111;-85
2021/01/13 10:53:03;;;;;;;12.73;4.78;;;;;;;3.55;77.90;100555.75;4924927;29;20565;-86
2021/01/13 10:55:33;;;;;;;14.57;4.90;;;;;;;3.55;77.60;100542.66;4907115;29;20067;-87
2021/01/13 10:58:18;;;;;;;13.20;4.47;;;;;;;3.70;77.15;100552.00;4934201;29;20084;-87
2021/01/13 11:01:03;;;;;;;11.25;5.43;;;;;;;3.72;76.98;100556.34;4926466;29;20052;-86
2021/01/13 11:03:34;;;;;;;10.90;5.18;;;;;;;3.70;76.31;100541.53;4910202;29;20049;-88
2021/01/13 11:06:23;;;;;;;13.27;5.07;;;;;;;3.70;77.00;100547.66;4905439;29;20139;-86
2021/01/13 11:08:53;;;;;;;13.02;4.88;;;;;;;3.69;76.71;100535.44;4922021;29;20052;-88
2021/01/13 11:11:20;;;;;;;11.95;5.07;;;;;;;3.74;76.31;100548.47;4921677;29;20048;-88
2021/01/13 11:13:46;;;;;;;10.38;4.85;;;;;;;3.74;76.55;100535.38;4924031;29;20067;-87
2021/01/13 11:16:26;;;;;;;11.65;4.82;;;;;;;3.77;76.65;100541.44;4916105;29;20052;-88
2021/01/13 11:18:55;;;;;;;10.18;4.75;;;;;;;3.77;76.50;100544.03;4909974;29;20052;-86
2021/01/13 11:21:37;;;;;;;12.70;4.88;;;;;;;3.82;76.74;100538.72;4924392;29;20080;-85
2021/01/13 11:24:09;;;;;;;13.70;4.72;;;;;;;3.92;76.00;100523.72;4902798;29;20048;-88
2021/01/13 11:27:22;;;;;;;12.43;4.43;;;;;;;3.92;75.57;100513.22;4934922;29;20052;-87
2021/01/13 11:29:58;;;;;;;11.52;5.20;;;;;;;3.92;75.90;100515.84;4937456;29;20052;-86
2021/01/13 11:32:30;;;;;;;11.15;4.55;;;;;;;3.91;75.52;100501.03;4947033;29;20052;-87
2021/01/13 11:35:05;;;;;;;14.32;5.07;;;;;;;3.99;75.47;100496.50;4908524;29;20135;-86
2021/01/13 11:37:51;;;;;;;9.43;4.60;;;;;;;4.12;74.83;100509.34;4929150;29;20060;-86
2021/01/13 11:40:38;;;;;;;9.73;4.07;;;;;;;4.13;75.27;100502.34;4909632;29;20132;-86
2021/01/13 11:43:18;;;;;;;12.65;4.15;;;;;;;4.22;74.47;100508.28;4925526;29;20070;-85
2021/01/13 11:46:15;;;;;;;11.82;3.60;;;;;;;4.26;74.44;100503.81;4919631;29;20044;-86
2021/01/13 11:49:08;;;;;;;9.02;4.00;;;;;;;4.23;73.44;100498.66;4922982;29;20135;-85
2021/01/13 11:51:42;;;;;;;8.65;3.78;;;;;;;4.25;74.56;100480.28;4930081;29;20052;-85
2021/01/13 11:54:11;;;;;;;10.23;3.33;;;;;;;4.38;73.73;100487.00;4928397;29;20135;-87
2021/01/13 11:56:44;;;;;;;14.02;4.00;;;;;;;4.41;72.21;100485.16;4922150;29;20023;-87
2021/01/13 11:59:11;;;;;;;13.32;3.90;;;;;;;4.39;73.36;100486.97;4924454;29;20048;-87
2021/01/13 12:02:19;;;;;;;6.38;3.47;;;;;;;4.35;72.83;100466.09;4939273;29;20036;-86
2021/01/13 12:05:00;;;;;;;7.20;2.92;;;;;;;4.36;71.94;100455.56;4924372;29;20119;-86
2021/01/13 12:08:13;;;;;;;13.05;3.45;;;;;;;4.48;72.25;100468.44;4940807;29;20055;-87